地図

経路データ

SID SEASON NUMBER BASIN SUBBASIN NAME ISO_TIME NATURE LAT LON WMO_WIND WMO_PRES WMO_AGENCY TRACK_TYPE DIST2LAND LANDFALL IFLAG USA_AGENCY USA_ATCF_ID USA_LAT USA_LON USA_RECORD USA_STATUS USA_WIND USA_PRES USA_SSHS USA_R34_NE USA_R34_SE USA_R34_SW USA_R34_NW USA_R50_NE USA_R50_SE USA_R50_SW USA_R50_NW USA_R64_NE USA_R64_SE USA_R64_SW USA_R64_NW USA_POCI USA_ROCI USA_RMW USA_EYE TOKYO_LAT TOKYO_LON TOKYO_GRADE TOKYO_WIND TOKYO_PRES TOKYO_R50_DIR TOKYO_R50_LONG TOKYO_R50_SHORT TOKYO_R30_DIR TOKYO_R30_LONG TOKYO_R30_SHORT TOKYO_LAND CMA_LAT CMA_LON CMA_CAT CMA_WIND CMA_PRES HKO_LAT HKO_LON HKO_CAT HKO_WIND HKO_PRES NEWDELHI_LAT NEWDELHI_LON NEWDELHI_GRADE NEWDELHI_WIND NEWDELHI_PRES NEWDELHI_CI NEWDELHI_DP NEWDELHI_POCI REUNION_LAT REUNION_LON REUNION_TYPE REUNION_WIND REUNION_PRES REUNION_TNUM REUNION_CI REUNION_RMW REUNION_R34_NE REUNION_R34_SE REUNION_R34_SW REUNION_R34_NW REUNION_R50_NE REUNION_R50_SE REUNION_R50_SW REUNION_R50_NW REUNION_R64_NE REUNION_R64_SE REUNION_R64_SW REUNION_R64_NW BOM_LAT BOM_LON BOM_TYPE BOM_WIND BOM_PRES BOM_TNUM BOM_CI BOM_RMW BOM_R34_NE BOM_R34_SE BOM_R34_SW BOM_R34_NW BOM_R50_NE BOM_R50_SE BOM_R50_SW BOM_R50_NW BOM_R64_NE BOM_R64_SE BOM_R64_SW BOM_R64_NW BOM_ROCI BOM_POCI BOM_EYE BOM_POS_METHOD BOM_PRES_METHOD NADI_LAT NADI_LON NADI_CAT NADI_WIND NADI_PRES WELLINGTON_LAT WELLINGTON_LON WELLINGTON_WIND WELLINGTON_PRES DS824_LAT DS824_LON DS824_STAGE DS824_WIND DS824_PRES TD9636_LAT TD9636_LON TD9636_STAGE TD9636_WIND TD9636_PRES TD9635_LAT TD9635_LON TD9635_WIND TD9635_PRES TD9635_ROCI NEUMANN_LAT NEUMANN_LON NEUMANN_CLASS NEUMANN_WIND NEUMANN_PRES MLC_LAT MLC_LON MLC_CLASS MLC_WIND MLC_PRES USA_GUST BOM_GUST BOM_GUST_PER REUNION_GUST REUNION_GUST_PER USA_SEAHGT USA_SEARAD_NE USA_SEARAD_SE USA_SEARAD_SW USA_SEARAD_NW STORM_SPEED STORM_DIR
1970104S10164 1970 39 SP MM ISA 1970-04-13 23:00:00 NR -9.60000 164.000 main 223 214 ______O___O___ -1 -9.60000 164.000 1008 -9.60000 164.000 1 10 9 251
1970104S10164 1970 39 SP MM ISA 1970-04-14 00:00:00 TS -9.64894 163.861 40 990 wellington main 214 172 O_____P_OOP_O_ jtwc_sh SH311970 -9.60000 163.900 10 -1 -9.61012 163.888 1007 -10.0000 163.300 40 990 -9.60000 163.900 TC 15 1008 -9.61012 163.888 1 10 -9.60000 164.200 TC 10 1008 7 261
1970104S10164 1970 39 SP MM ISA 1970-04-14 03:00:00 TS -9.67269 163.515 main 172 148 P_____P_PPP_P_ SH311970 -9.65007 163.550 12 -1 -9.64309 163.551 1006 -9.86279 162.959 40 990 -9.63926 163.555 TC 17 1006 -9.64309 163.551 1 13 -9.65007 163.850 TC 15 1006 7 266
1970104S10164 1970 39 SP MM ISA 1970-04-14 06:00:00 TS -9.69680 163.167 main 148 120 O_____P_PPP_O_ jtwc_sh SH311970 -9.70000 163.200 15 -1 -9.68594 163.206 1005 -9.73031 162.625 40 990 -9.68268 163.207 TC 20 1005 -9.68594 163.206 1 15 -9.70000 163.500 TC 20 1005 7 266
1970104S10164 1970 39 SP MM ISA 1970-04-14 09:00:00 TS -9.72642 162.815 main 120 109 P_____P_PPP_P_ SH311970 -9.74996 162.850 17 -1 -9.74629 162.848 1003 -9.60767 162.303 40 990 -9.73476 162.856 TC 22 1004 -9.74629 162.848 1 18 -9.74996 163.150 TC 22 1004 7 265
1970104S10164 1970 39 SP MM ISA 1970-04-14 11:00:00 TS -9.75148 162.581 main 99 95 P_____O_PPO_P_ SH311970 -9.78331 162.617 19 -1 -9.80000 162.600 1003 -9.53391 162.099 40 990 -9.77652 162.620 TC 24 1003 -9.80000 162.600 1 20 -9.78331 162.917 TC 24 1003 7 263
1970104S10164 1970 39 SP MM ISA 1970-04-14 12:00:00 TS -9.76613 162.464 40 990 wellington main 95 74 O_____P_OOP_O_ jtwc_sh SH311970 -9.80000 162.500 20 -1 -9.83146 162.472 1003 -9.50000 162.000 40 990 -9.80000 162.500 TC 25 1003 -9.83146 162.472 1 20 -9.80000 162.800 TC 25 1003 7 262
1970104S10164 1970 39 SP MM ISA 1970-04-14 15:00:00 TS -9.81447 162.111 main 74 49 P_____P_PPP_P_ SH311970 -9.84997 162.150 22 -1 -9.93199 162.085 1003 -9.41052 161.720 40 990 -9.87690 162.140 TC 23 1003 -9.93199 162.085 1 21 -9.84996 162.450 TC 25 1003 7 262
1970104S10164 1970 39 SP MM ISA 1970-04-14 18:00:00 TS -9.85712 161.768 main 49 33 O_____P_PPP_O_ jtwc_sh SH311970 -9.90000 161.800 25 -1 -10.0124 161.712 1003 -9.33488 161.463 40 990 -9.94007 161.790 TC 22 1003 -10.0124 161.712 1 22 -9.90000 162.100 TC 25 1003 7 263
1970104S10164 1970 39 SP MM ISA 1970-04-14 21:00:00 TS -9.89724 161.431 main 33 33 P_____P_PPP_P_ SH311970 -9.99504 161.420 25 -1 -10.0353 161.382 1003 -9.26680 161.224 40 990 -9.95818 161.471 TC 21 1003 -10.0353 161.382 1 24 -9.99504 161.720 TC 22 1003 6 267
1970104S10164 1970 39 SP MM ISA 1970-04-14 23:00:00 TS -9.88645 161.234 main 40 40 P_____O_PPO_P_ SH311970 -10.0176 161.194 25 -1 -10.0000 161.200 1004 -9.22251 161.073 40 990 -9.92980 161.284 TC 20 1003 -10.0000 161.200 1 25 -10.0176 161.494 TC 20 1003 6 278
1970104S10164 1970 39 SP MM ISA 1970-04-15 00:00:00 TS -9.85838 161.151 40 990 wellington main 40 21 O_____P_OOP_O_ jtwc_sh SH311970 -10.0000 161.100 25 -1 -9.95434 161.129 1003 -9.20000 161.000 40 990 -9.90000 161.200 TC 20 1004 -9.95434 161.129 1 24 -10.0000 161.400 TC 20 1004 5 308
1970104S10164 1970 39 SP MM ISA 1970-04-15 03:00:00 TS -9.67803 160.963 main 24 15 P_____P_PPP_P_ SH311970 -9.80245 160.905 22 -1 -9.75035 160.968 1002 -9.12900 160.782 40 990 -9.71669 161.000 TC 22 1003 -9.75035 160.968 1 23 -9.79494 161.212 TC 22 1003 5 324
1970104S10164 1970 39 SP MM ISA 1970-04-15 06:00:00 TS -9.42528 160.834 main 24 15 O_____P_PPP_O_ jtwc_sh SH311970 -9.50000 160.800 20 -1 -9.47988 160.857 1001 -9.05743 160.578 40 990 -9.45978 160.847 TC 25 1002 -9.47988 160.857 1 22 -9.50000 161.100 TC 25 1002 6 336
1970104S10164 1970 39 SP MM ISA 1970-04-15 09:00:00 TS -9.16512 160.732 main 24 10 P_____P_PPP_P_ SH311970 -9.19249 160.743 20 -1 -9.18661 160.765 1000 -8.98214 160.385 40 990 -9.17299 160.722 TC 27 1001 -9.18661 160.765 1 20 -9.24248 161.000 TC 27 1001 6 339
1970104S10164 1970 39 SP MM ISA 1970-04-15 11:00:00 TS -8.99644 160.668 main 10 10 P_____O_PPO_P_ SH311970 -8.99120 160.717 20 -1 -9.00000 160.700 1000 -8.92834 160.261 40 990 -8.98677 160.641 TC 29 1000 -9.00000 160.700 1 20 -9.07761 160.936 TC 29 1000 5 339
1970104S10164 1970 39 SP MM ISA 1970-04-15 12:00:00 TS -8.92013 160.632 40 990 wellington main 21 21 O_____P_OOP_O_ jtwc_sh SH311970 -8.90000 160.700 20 -1 -8.92044 160.662 1000 -8.90000 160.200 40 990 -8.90000 160.600 TC 30 1000 -8.92044 160.662 1 19 -9.00000 160.900 TC 30 1000 5 332
1970104S10164 1970 39 SP MM ISA 1970-04-15 15:00:00 TS -8.71686 160.519 main 24 22 P_____P_PPP_P_ SH311970 -8.67748 160.630 17 -1 -8.69024 160.546 1000 -8.80299 160.042 40 990 -8.68707 160.479 TC 30 1000 -8.69024 160.546 1 18 -8.79250 160.758 TC 30 1000 5 327
1970104S10164 1970 39 SP MM ISA 1970-04-15 18:00:00 TS -8.53676 160.381 main 33 33 O_____P_PPP_O_ jtwc_sh SH311970 -8.50000 160.500 15 -1 -8.48009 160.412 1000 -8.69979 159.888 40 990 -8.49731 160.353 TC 30 1000 -8.48009 160.412 1 17 -8.60000 160.600 TC 30 1000 5 319
1970104S10164 1970 39 SP MM ISA 1970-04-15 21:00:00 TS -8.36920 160.208 main 34 22 P_____P_PPP_P_ SH311970 -8.33498 160.288 15 -1 -8.29943 160.243 1000 -8.59671 159.714 40 990 -8.33391 160.200 TC 30 1000 -8.29943 160.243 1 15 -8.38494 160.480 TC 30 1000 5 310
1970104S10164 1970 39 SP MM ISA 1970-04-15 23:00:00 TS -8.27297 160.061 main 22 11 P_____O_PPO_P_ SH311970 -8.24165 160.103 15 -1 -8.20000 160.100 1000 -8.53114 159.577 40 990 -8.24117 160.074 TC 30 1000 -8.20000 160.100 1 15 -8.25521 160.373 TC 30 1000 5 301
1970104S10164 1970 39 SP EA ISA 1970-04-16 00:00:00 TS -8.23023 159.976 main 15 11 O_____P_OOP_O_ jtwc_sh SH311970 -8.20000 160.000 15 -1 -8.15580 160.015 1000 -8.50000 159.500 40 990 -8.20000 160.000 TC 30 1000 -8.15580 160.015 1 15 -8.20000 160.300 TC 30 1000 6 291
1970104S10164 1970 39 SP EA ISA 1970-04-16 03:00:00 TS -8.12071 159.668 main 11 0 P_____P_PPP_P_ SH311970 -8.08502 159.658 17 -1 -8.04972 159.722 1000 -8.40977 159.214 40 990 -8.08818 159.729 TC 30 1000 -8.04972 159.722 1 16 -8.07755 159.973 TC 30 1000 7 286
1970104S10164 1970 39 SP EA ISA 1970-04-16 06:00:00 TS -8.04069 159.325 main 0 0 O_____P_PPP_O_ jtwc_sh SH311970 -8.00000 159.300 20 -1 -7.97608 159.388 1000 -8.32761 158.887 40 990 -8.00506 159.410 TC 30 1000 -7.97608 159.388 1 17 -8.00000 159.600 TC 30 1000 7 282
1970104S10164 1970 39 SP EA ISA 1970-04-16 09:00:00 TS -7.98277 158.996 main 0 0 P_____P_PPP_P_ SH311970 -7.94244 159.000 20 -1 -7.92550 159.035 1000 -8.25663 158.542 40 990 -7.94440 159.061 TC 30 1000 -7.92550 159.035 1 19 -7.94244 159.300 TC 30 1000 7 279
1970104S10164 1970 39 SP EA ISA 1970-04-16 11:00:00 TS -7.95321 158.777 1000 bom main 11 11 P_____O_PPO_P_ SH311970 -7.91401 158.803 20 -1 -7.90000 158.800 1000 -8.21708 158.312 40 990 -7.91337 158.820 TC 30 1000 -7.90000 158.800 1 20 -7.91401 159.103 TC 30 1000 7 278
1970104S10164 1970 39 SP EA ISA 1970-04-16 12:00:00 TS -7.93650 158.671 main 11 11 O_____P_OOP_O_ jtwc_sh SH311970 -7.90000 158.700 20 -1 -7.87673 158.700 1000 -8.20000 158.200 40 990 -7.90000 158.700 TC 30 1000 -7.87874 158.698 1 20 -7.90000 159.000 TC 30 1000 6 280
1970104S10164 1970 39 SP EA ISA 1970-04-16 15:00:00 TS -7.87761 158.349 main 34 34 P_____P_PPP_P_ SH311970 -7.84251 158.350 20 -1 -7.81460 158.404 1000 -8.14414 157.917 40 990 -7.83352 158.379 TC 30 1000 -7.82346 158.394 1 20 -7.84251 158.650 TC 30 1000 7 279
1970104S10164 1970 39 SP EA ISA 1970-04-16 18:00:00 TS -7.83618 158.023 main 55 35 O_____P_PPP_O_ jtwc_sh SH311970 -7.80000 158.000 20 -1 -7.77532 158.096 1000 -8.10465 157.637 40 990 -7.78502 158.048 TC 30 1000 -7.78831 158.081 1 20 -7.80000 158.300 TC 30 1000 6 275
1970104S10164 1970 39 SP EA ISA 1970-04-16 21:00:00 TS -7.82074 157.711 main 35 33 P_____P_PPP_P_ SH311970 -7.77741 157.715 20 -1 -7.77340 157.756 1000 -8.08785 157.339 40 990 -7.76902 157.693 TC 30 1000 -7.78270 157.745 1 20 -7.77741 158.015 TC 30 1000 6 270
1970104S10164 1970 39 SP EA ISA 1970-04-16 23:00:00 TS -7.83337 157.485 1000 bom main 33 33 P_____O_PPO_P_ SH311970 -7.78590 157.514 20 -1 -7.80000 157.500 1000 -8.09235 157.119 40 990 -7.78356 157.436 TC 30 1000 -7.80000 157.500 1 20 -7.78590 157.814 TC 30 1000 7 265
1970104S10164 1970 39 SP EA ISA 1970-04-17 00:00:00 TS -7.84831 157.360 main 33 24 O_____P_OOP_O_ jtwc_sh SH311970 -7.80000 157.400 20 -1 -7.82403 157.359 999 -8.10000 157.000 40 990 -7.80000 157.300 TC 30 1000 -7.81416 157.362 1 20 -7.80000 157.700 TC 30 1000 9 261
1970104S10164 1970 39 SP EA ISA 1970-04-17 03:00:00 TS -7.92525 156.920 main 55 55 P_____P_PPP_P_ SH311970 -7.88502 156.973 20 -1 -7.92447 156.909 998 -8.13444 156.540 40 990 -7.87963 156.852 TC 32 999 -7.88314 156.918 1 20 -7.88502 157.273 TC 32 999 9 259
1970104S10164 1970 39 SP EA ISA 1970-04-17 05:00:00 TS -7.99461 156.606 998 bom main 74 74 P_____O_PPP_P_ SH311970 -7.96142 156.658 20 -1 -8.00000 156.600 998 4 -8.17382 156.212 40 990 -7.95645 156.547 TC 34 998 -7.94771 156.608 1 20 -7.96142 156.958 TC 34 998 10 257
1970104S10164 1970 39 SP EA ISA 1970-04-17 06:00:00 TS -8.03060 156.449 main 94 94 O_____P_POP_O_ jtwc_sh SH311970 -8.00000 156.500 20 -1 -8.03161 156.447 998 -8.19806 156.048 40 990 -8.00000 156.400 TC 35 998 -7.98452 156.451 1 20 -8.00000 156.800 TC 35 998 9 257
1970104S10164 1970 39 SP EA ISA 1970-04-17 09:00:00 TS -8.13305 155.995 main 134 134 P_____P_PPP_P_ SH311970 -8.08498 156.042 20 -1 -8.12817 155.990 999 -8.28758 155.581 40 990 -8.14425 155.985 TC 32 999 -8.10889 155.990 1 20 -8.09250 156.335 TC 30 999 9 256
1970104S10164 1970 39 SP EA ISA 1970-04-17 11:00:00 TS -8.21147 155.709 1001 bom main 145 145 P_____O_PPO_P_ SH311970 -8.15523 155.744 20 -1 -8.20000 155.700 1001 -8.36016 155.314 40 990 -8.24872 155.725 TC 30 1000 -8.20000 155.700 1 20 -8.16096 156.039 TC 26 1000 9 254
1970104S10164 1970 39 SP EA ISA 1970-04-17 12:00:00 TS -8.25611 155.573 main 157 157 O_____P_OOP_O_ jtwc_sh SH311970 -8.20000 155.600 20 -1 -8.24454 155.555 1001 -8.40000 155.200 40 990 -8.30000 155.600 TC 30 1001 -8.24819 155.556 1 19 -8.20000 155.900 TC 25 1001 8 248
1970104S10164 1970 39 SP EA ISA 1970-04-17 15:00:00 TS -8.41754 155.190 main 176 176 P_____P_PPP_P_ SH311970 -8.39998 155.178 17 -1 -8.39731 155.139 1001 -8.53218 154.948 40 990 -8.44504 155.212 TC 28 1001 -8.40591 155.142 1 18 -8.34243 155.535 TC 25 1001 8 245
1970104S10164 1970 39 SP EA ISA 1970-04-17 18:00:00 TS -8.58434 154.856 main 209 209 O_____P_PPP_O_ jtwc_sh SH311970 -8.60000 154.800 15 -1 -8.56145 154.766 1002 -8.67959 154.805 40 990 -8.58073 154.851 TC 27 1002 -8.56865 154.769 1 17 -8.50000 155.200 TC 25 1002 7 244
1970104S10164 1970 39 SP EA ISA 1970-04-17 21:00:00 TS -8.72168 154.553 main 234 234 P_____P_PPP_P_ SH311970 -8.72249 154.455 15 -1 -8.71476 154.459 1002 -8.83722 154.734 40 990 -8.70104 154.540 TC 26 1002 -8.71762 154.460 1 15 -8.66504 154.813 TC 25 1002 6 246
1970104S10164 1970 39 SP EA ISA 1970-04-17 23:00:00 TS -8.79372 154.378 1003 bom main 254 254 P_____O_PPO_P_ SH311970 -8.77762 154.272 15 -1 -8.80000 154.300 1003 -8.94549 154.710 40 990 -8.76975 154.371 TC 25 1002 -8.80000 154.300 1 15 -8.76144 154.588 TC 25 1002 5 250
1970104S10164 1970 39 SP EA ISA 1970-04-18 00:00:00 TS -8.81642 154.293 main 260 260 O_____P_OOP_O_ jtwc_sh SH311970 -8.80000 154.200 15 -1 -8.82630 154.228 1003 -9.00000 154.700 40 990 -8.80000 154.300 TC 25 1003 -8.82630 154.228 1 15 -8.80000 154.500 TC 25 1003 4 253
1970104S10164 1970 39 SP EA ISA 1970-04-18 03:00:00 TS -8.86952 154.125 main 281 281 P_____P__PP_P_ SH311970 -8.85746 154.055 15 -1 -8.88174 154.070 1003 -8.87380 154.144 TC 25 1003 -8.88174 154.070 1 15 -8.86494 154.355 TC 25 1003 3 248
1970104S10164 1970 39 SP EA ISA 1970-04-18 06:00:00 TS -8.91087 154.056 main 281 281 O_____P__PP_O_ jtwc_sh SH311970 -8.90000 154.000 15 -1 -8.91900 153.988 1003 -8.92718 154.058 TC 25 1003 -8.91900 153.988 1 15 -8.90000 154.300 TC 25 1003 1 233
1970104S10164 1970 39 SP EA ISA 1970-04-18 09:00:00 TS -8.94914 154.022 main 287 287 P_____P__PP_P_ SH311970 -8.93499 153.970 15 -1 -8.95993 153.975 1003 -8.96698 154.017 TC 25 1003 -8.95993 153.975 1 15 -8.94249 154.220 TC 25 1003 1 0
1970104S10164 1970 39 SP EA ISA 1970-04-18 11:00:00 TS -8.98475 154.030 1003 bom main 296 296 P_____O__PO_P_ SH311970 -8.97191 153.983 15 -1 -9.00000 154.000 1003 -8.98933 154.005 TC 25 1003 -9.00000 154.000 1 15 -8.97762 154.197 TC 25 1003 1 154
1970104S10164 1970 39 SP EA ISA 1970-04-18 12:00:00 TS -9.01099 154.051 main 290 290 O_____P__OP_O_ jtwc_sh SH311970 -9.00000 154.000 15 -1 -9.02609 154.021 1003 -9.00000 154.000 TC 25 1003 -9.02609 154.021 1 15 -9.00000 154.200 TC 25 1003 3 140
1970104S10164 1970 39 SP EA ISA 1970-04-18 15:00:00 TS -9.11740 154.146 main 300 294 P_____P___P_P_ SH311970 -9.13001 154.085 15 -1 -9.12730 154.115 1003 TC -9.12730 154.115 1 16 -9.08500 154.270 TC 25 1003 3 135
1970104S10164 1970 39 SP EA ISA 1970-04-18 18:00:00 TS -9.24422 154.288 main 299 299 O_____P___P_O_ jtwc_sh SH311970 -9.30000 154.200 15 -1 -9.25510 154.243 1003 TC -9.25510 154.243 1 17 -9.20000 154.400 TC 25 1003 4 130
1970104S10164 1970 39 SP EA ISA 1970-04-18 21:00:00 TS -9.37507 154.460 main 309 309 ______P___P_P_ SH311970 -1 -9.39948 154.394 1003 TC -9.39948 154.394 1 19 -9.34251 154.547 TC 25 1003 4 129
1970104S10164 1970 39 SP EA ISA 1970-04-18 23:00:00 TS -9.47338 154.574 1003 bom main 315 305 ______O___O_P_ SH311970 -1 -9.50000 154.500 1003 TC -9.50000 154.500 1 20 -9.44677 154.649 TC 25 1003 5 118
1970104S10164 1970 39 SP EA ISA 1970-04-19 00:00:00 TS -9.50000 154.700 main 305 ____________O_ -1 1 -9.50000 154.700 TC 25 1003 8 102

デジタル台風データ・検索

IBTrACS Databaseについて

本データベースは、米国NOAAが公開する1842年以降の世界の熱帯低気圧のベストトラックデータアーカイブInternational Best Track Archive for Climate Stewardship (IBTrACS)を、ウェブで閲覧しやすい形式に変換したものです。

最終更新日:2021-10-08